createdAt,value
2018-11-26T00:00:51.179Z,1005.74
2018-11-26T00:01:51.197Z,1005.77
2018-11-26T00:02:51.175Z,1005.75
2018-11-26T00:03:51.179Z,1005.73
2018-11-26T00:04:51.187Z,1005.78
2018-11-26T00:05:51.198Z,1005.80
2018-11-26T00:06:51.189Z,1005.72
2018-11-26T00:07:51.198Z,1005.78
2018-11-26T00:08:51.173Z,1005.71
2018-11-26T00:09:51.173Z,1005.82
2018-11-26T00:10:51.163Z,1005.80
2018-11-26T00:11:51.169Z,1005.76
2018-11-26T00:12:51.169Z,1005.71
2018-11-26T00:13:51.158Z,1005.71
2018-11-26T00:14:51.166Z,1005.67
2018-11-26T00:15:51.171Z,1005.61
2018-11-26T00:16:51.165Z,1005.63
2018-11-26T00:17:51.174Z,1005.63
2018-11-26T00:18:51.157Z,1005.58
2018-11-26T00:19:51.166Z,1005.59
2018-11-26T00:20:51.159Z,1005.60
2018-11-26T00:21:51.147Z,1005.52
2018-11-26T00:22:51.147Z,1005.62
2018-11-26T00:23:51.144Z,1005.57
2018-11-26T00:24:51.145Z,1005.58
2018-11-26T00:25:51.136Z,1005.54
2018-11-26T00:26:51.147Z,1005.55
2018-11-26T00:27:51.137Z,1005.58
2018-11-26T00:28:51.138Z,1005.57
2018-11-26T00:29:51.141Z,1005.53
2018-11-26T00:30:51.144Z,1005.56
2018-11-26T00:31:51.140Z,1005.59
2018-11-26T00:32:51.153Z,1005.50
2018-11-26T00:33:51.132Z,1005.50
2018-11-26T00:34:51.120Z,1005.51
2018-11-26T00:35:51.126Z,1005.47
2018-11-26T00:36:51.125Z,1005.50
2018-11-26T00:37:51.127Z,1005.44
2018-11-26T00:38:51.111Z,1005.44
2018-11-26T00:39:51.120Z,1005.44
2018-11-26T00:40:51.119Z,1005.43
2018-11-26T00:41:51.110Z,1005.45
2018-11-26T00:42:51.117Z,1005.44
2018-11-26T00:43:51.098Z,1005.40
2018-11-26T00:44:51.103Z,1005.37
2018-11-26T00:45:51.120Z,1005.38
2018-11-26T00:46:51.115Z,1005.38
2018-11-26T00:47:51.110Z,1005.37
2018-11-26T00:48:51.090Z,1005.35
2018-11-26T00:49:51.091Z,1005.29
2018-11-26T00:50:51.103Z,1005.31
2018-11-26T00:51:53.848Z,1005.39
2018-11-26T00:52:51.093Z,1005.42
2018-11-26T00:53:51.083Z,1005.30
2018-11-26T00:54:51.091Z,1005.28
2018-11-26T00:55:51.088Z,1005.27
2018-11-26T00:56:51.096Z,1005.33
2018-11-26T00:57:51.078Z,1005.25
2018-11-26T00:58:51.099Z,1005.27
2018-11-26T00:59:51.078Z,1005.26
2018-11-26T01:00:51.078Z,1005.21
2018-11-26T01:01:51.063Z,1005.28
2018-11-26T01:02:51.073Z,1005.24
2018-11-26T01:03:51.094Z,1005.28
2018-11-26T01:04:51.057Z,1005.24
2018-11-26T01:05:51.061Z,1005.19
2018-11-26T01:06:51.061Z,1005.28
2018-11-26T01:07:51.061Z,1005.24
2018-11-26T01:08:51.052Z,1005.18
2018-11-26T01:09:51.049Z,1005.22
2018-11-26T01:10:51.043Z,1005.23
2018-11-26T01:11:51.064Z,1005.28
2018-11-26T01:12:51.043Z,1005.28
2018-11-26T01:13:51.047Z,1005.27
2018-11-26T01:14:51.049Z,1005.35
2018-11-26T01:15:51.033Z,1005.36
2018-11-26T01:16:51.059Z,1005.30
2018-11-26T01:17:51.037Z,1005.30
2018-11-26T01:18:51.047Z,1005.31
2018-11-26T01:19:51.041Z,1005.31
2018-11-26T01:20:51.041Z,1005.25
2018-11-26T01:21:51.065Z,1005.20
2018-11-26T01:22:51.056Z,1005.22
2018-11-26T01:23:51.031Z,1005.26
2018-11-26T01:24:51.021Z,1005.26
2018-11-26T01:25:51.022Z,1005.33
2018-11-26T01:26:51.011Z,1005.32
2018-11-26T01:27:51.034Z,1005.30
2018-11-26T01:28:51.028Z,1005.35
2018-11-26T01:29:51.024Z,1005.35
2018-11-26T01:30:51.029Z,1005.40
2018-11-26T01:31:51.026Z,1005.39
2018-11-26T01:32:51.017Z,1005.36
2018-11-26T01:33:51.006Z,1005.38
2018-11-26T01:34:51.006Z,1005.38
2018-11-26T01:35:51.003Z,1005.41
2018-11-26T01:36:51.008Z,1005.41
2018-11-26T01:37:51.000Z,1005.42
2018-11-26T01:38:50.997Z,1005.41
2018-11-26T01:39:50.999Z,1005.37
2018-11-26T01:40:50.993Z,1005.38
2018-11-26T01:41:51.005Z,1005.31
2018-11-26T01:42:50.988Z,1005.36
2018-11-26T01:43:50.989Z,1005.30
2018-11-26T01:44:50.988Z,1005.41
2018-11-26T01:45:50.983Z,1005.37
2018-11-26T01:46:50.980Z,1005.37
2018-11-26T01:47:50.988Z,1005.31
2018-11-26T01:48:50.978Z,1005.33
2018-11-26T01:49:50.964Z,1005.28
2018-11-26T01:50:51.007Z,1005.32
2018-11-26T01:51:50.975Z,1005.34
2018-11-26T01:52:50.960Z,1005.27
2018-11-26T01:53:50.978Z,1005.31
2018-11-26T01:54:50.969Z,1005.33
2018-11-26T01:55:50.975Z,1005.30
2018-11-26T01:56:50.968Z,1005.27
2018-11-26T01:57:50.959Z,1005.22
2018-11-26T01:58:50.957Z,1005.25
2018-11-26T01:59:50.967Z,1005.25
2018-11-26T02:00:50.956Z,1005.30
2018-11-26T02:01:50.951Z,1005.27
2018-11-26T02:02:50.949Z,1005.28
2018-11-26T02:03:50.940Z,1005.35
2018-11-26T02:04:50.963Z,1005.33
2018-11-26T02:05:50.942Z,1005.34
2018-11-26T02:06:50.939Z,1005.33
2018-11-26T02:07:50.976Z,1005.40
2018-11-26T02:08:50.945Z,1005.39
2018-11-26T02:09:50.938Z,1005.39
2018-11-26T02:10:50.929Z,1005.43
2018-11-26T02:11:50.924Z,1005.44
2018-11-26T02:12:50.944Z,1005.43
2018-11-26T02:13:50.989Z,1005.43
2018-11-26T02:14:50.918Z,1005.47
2018-11-26T02:15:50.920Z,1005.46
2018-11-26T02:16:50.915Z,1005.46
2018-11-26T02:17:50.919Z,1005.41
2018-11-26T02:18:50.913Z,1005.48
2018-11-26T02:19:50.928Z,1005.52
2018-11-26T02:20:50.921Z,1005.45
2018-11-26T02:21:50.944Z,1005.42
2018-11-26T02:22:50.901Z,1005.38
2018-11-26T02:23:50.906Z,1005.38
2018-11-26T02:24:50.912Z,1005.41
2018-11-26T02:25:50.924Z,1005.42
2018-11-26T02:26:50.898Z,1005.39
2018-11-26T02:27:50.895Z,1005.43
2018-11-26T02:28:50.907Z,1005.40
2018-11-26T02:29:50.900Z,1005.44
2018-11-26T02:30:50.896Z,1005.37
2018-11-26T02:31:50.890Z,1005.36
2018-11-26T02:32:50.904Z,1005.37
2018-11-26T02:33:50.910Z,1005.39
2018-11-26T02:34:50.879Z,1005.34
2018-11-26T02:35:50.878Z,1005.34
2018-11-26T02:36:50.891Z,1005.31
2018-11-26T02:37:50.890Z,1005.35
2018-11-26T02:38:50.883Z,1005.29
2018-11-26T02:39:50.877Z,1005.29
2018-11-26T02:40:50.869Z,1005.24
2018-11-26T02:41:50.895Z,1005.28
2018-11-26T02:42:50.891Z,1005.26
2018-11-26T02:43:50.878Z,1005.25
2018-11-26T02:44:50.883Z,1005.22
2018-11-26T02:45:50.882Z,1005.28
2018-11-26T02:46:50.862Z,1005.23
2018-11-26T02:47:50.865Z,1005.22
2018-11-26T02:48:50.864Z,1005.21
2018-11-26T02:49:50.861Z,1005.20
2018-11-26T02:50:50.850Z,1005.19
2018-11-26T02:51:50.862Z,1005.17
2018-11-26T02:52:50.854Z,1005.17
2018-11-26T02:53:50.864Z,1005.18
2018-11-26T02:54:50.854Z,1005.20
2018-11-26T02:55:50.848Z,1005.22
2018-11-26T02:56:50.843Z,1005.21
2018-11-26T02:57:50.848Z,1005.25
2018-11-26T02:58:50.837Z,1005.24
2018-11-26T02:59:50.839Z,1005.19
2018-11-26T03:00:50.842Z,1005.21
2018-11-26T03:01:50.831Z,1005.18
2018-11-26T03:02:50.861Z,1005.18
2018-11-26T03:03:50.834Z,1005.21
2018-11-26T03:04:50.856Z,1005.16
2018-11-26T03:05:50.839Z,1005.16
2018-11-26T03:06:50.841Z,1005.19
2018-11-26T03:07:50.834Z,1005.19
2018-11-26T03:08:50.847Z,1005.23
2018-11-26T03:09:50.821Z,1005.23
2018-11-26T03:10:50.813Z,1005.22
2018-11-26T03:11:50.817Z,1005.22
2018-11-26T03:12:50.815Z,1005.26
2018-11-26T03:13:50.819Z,1005.24
2018-11-26T03:14:50.806Z,1005.24
2018-11-26T03:15:50.808Z,1005.21
2018-11-26T03:16:50.812Z,1005.24
2018-11-26T03:17:50.799Z,1005.20
2018-11-26T03:18:50.799Z,1005.21
2018-11-26T03:19:50.803Z,1005.22
2018-11-26T03:20:50.812Z,1005.24
2018-11-26T03:21:50.825Z,1005.22
2018-11-26T03:22:50.799Z,1005.28
2018-11-26T03:23:50.789Z,1005.28
2018-11-26T03:24:50.795Z,1005.28
2018-11-26T03:25:50.794Z,1005.24
2018-11-26T03:26:50.793Z,1005.26
2018-11-26T03:27:50.803Z,1005.25
2018-11-26T03:28:50.781Z,1005.28
2018-11-26T03:29:50.789Z,1005.28
2018-11-26T03:30:50.783Z,1005.27
2018-11-26T03:31:50.785Z,1005.26
2018-11-26T03:32:50.788Z,1005.29
2018-11-26T03:33:50.800Z,1005.21
2018-11-26T03:34:50.794Z,1005.26
2018-11-26T03:35:50.777Z,1005.24
2018-11-26T03:36:50.763Z,1005.25
2018-11-26T03:37:50.771Z,1005.26
2018-11-26T03:38:50.767Z,1005.28
2018-11-26T03:39:50.771Z,1005.27
2018-11-26T03:40:50.782Z,1005.25
2018-11-26T03:41:50.777Z,1005.27
2018-11-26T03:42:50.774Z,1005.34
2018-11-26T03:43:50.769Z,1005.35
2018-11-26T03:44:50.762Z,1005.39
2018-11-26T03:45:50.780Z,1005.34
2018-11-26T03:46:50.754Z,1005.38
2018-11-26T03:47:50.750Z,1005.34
2018-11-26T03:48:50.754Z,1005.33
2018-11-26T03:49:50.747Z,1005.32
2018-11-26T03:50:50.752Z,1005.34
2018-11-26T03:51:50.737Z,1005.35
2018-11-26T03:52:50.751Z,1005.38
2018-11-26T03:53:50.730Z,1005.38
2018-11-26T03:54:50.740Z,1005.37
2018-11-26T03:55:50.735Z,1005.41
2018-11-26T03:56:50.736Z,1005.38
2018-11-26T03:57:50.768Z,1005.38
2018-11-26T03:58:50.752Z,1005.38
2018-11-26T03:59:50.731Z,1005.37
2018-11-26T04:00:50.753Z,1005.38
2018-11-26T04:01:50.732Z,1005.41
2018-11-26T04:02:50.733Z,1005.34
2018-11-26T04:03:50.715Z,1005.37
2018-11-26T04:04:50.730Z,1005.36
2018-11-26T04:05:50.722Z,1005.38
2018-11-26T04:06:50.753Z,1005.35
2018-11-26T04:07:50.725Z,1005.39
2018-11-26T04:08:50.718Z,1005.33
2018-11-26T04:09:50.717Z,1005.41
2018-11-26T04:10:50.717Z,1005.40
2018-11-26T04:11:50.707Z,1005.36
2018-11-26T04:12:50.715Z,1005.35
2018-11-26T04:13:50.707Z,1005.40
2018-11-26T04:14:50.701Z,1005.41
2018-11-26T04:15:50.702Z,1005.38
2018-11-26T04:16:50.709Z,1005.35
2018-11-26T04:17:50.689Z,1005.38
2018-11-26T04:18:50.687Z,1005.37
2018-11-26T04:19:50.716Z,1005.36
2018-11-26T04:20:50.691Z,1005.35
2018-11-26T04:21:50.698Z,1005.32
2018-11-26T04:22:50.702Z,1005.32
2018-11-26T04:23:50.690Z,1005.36
2018-11-26T04:24:50.687Z,1005.34
2018-11-26T04:25:50.688Z,1005.38
2018-11-26T04:26:50.687Z,1005.41
2018-11-26T04:27:50.690Z,1005.42
2018-11-26T04:28:50.680Z,1005.37
2018-11-26T04:29:50.677Z,1005.42
2018-11-26T04:30:50.663Z,1005.43
2018-11-26T04:31:50.677Z,1005.45
2018-11-26T04:32:50.673Z,1005.42
2018-11-26T04:33:50.676Z,1005.42
2018-11-26T04:34:50.683Z,1005.43
2018-11-26T04:35:50.675Z,1005.43
2018-11-26T04:36:50.682Z,1005.42
2018-11-26T04:37:50.666Z,1005.38
2018-11-26T04:38:50.671Z,1005.39
2018-11-26T04:39:50.667Z,1005.43
2018-11-26T04:40:50.649Z,1005.40
2018-11-26T04:41:50.671Z,1005.39
2018-11-26T04:42:50.660Z,1005.38
2018-11-26T04:43:50.664Z,1005.38
2018-11-26T04:44:50.675Z,1005.39
2018-11-26T04:45:50.668Z,1005.43
2018-11-26T04:46:50.664Z,1005.36
2018-11-26T04:47:50.653Z,1005.45
2018-11-26T04:48:50.643Z,1005.41
2018-11-26T04:49:50.641Z,1005.47
2018-11-26T04:50:50.634Z,1005.49
2018-11-26T04:51:50.640Z,1005.50
2018-11-26T04:52:50.634Z,1005.50
2018-11-26T04:53:50.642Z,1005.53
2018-11-26T04:54:50.664Z,1005.49
2018-11-26T04:55:50.635Z,1005.46
2018-11-26T04:56:50.650Z,1005.45
2018-11-26T04:57:50.635Z,1005.48
2018-11-26T04:58:50.681Z,1005.46
2018-11-26T04:59:50.681Z,1005.46
2018-11-26T05:00:50.634Z,1005.43
2018-11-26T05:01:50.631Z,1005.39
2018-11-26T05:02:50.665Z,1005.40
2018-11-26T05:03:50.626Z,1005.35
2018-11-26T05:04:50.635Z,1005.37
2018-11-26T05:05:50.619Z,1005.36
2018-11-26T05:06:50.612Z,1005.33
2018-11-26T05:07:50.620Z,1005.29
2018-11-26T05:08:50.612Z,1005.25
2018-11-26T05:09:50.627Z,1005.30
2018-11-26T05:10:51.222Z,1005.28
2018-11-26T05:11:50.626Z,1005.33
2018-11-26T05:12:50.613Z,1005.30
2018-11-26T05:13:50.605Z,1005.26
2018-11-26T05:14:50.601Z,1005.25
2018-11-26T05:15:50.603Z,1005.23
2018-11-26T05:16:50.592Z,1005.24
2018-11-26T05:17:50.619Z,1005.23
2018-11-26T05:18:50.584Z,1005.27
2018-11-26T05:19:50.620Z,1005.27
2018-11-26T05:20:50.601Z,1005.23
2018-11-26T05:21:50.580Z,1005.21
2018-11-26T05:22:50.603Z,1005.19
2018-11-26T05:23:50.582Z,1005.26
2018-11-26T05:24:50.579Z,1005.23
2018-11-26T05:25:50.591Z,1005.30
2018-11-26T05:26:50.578Z,1005.27
2018-11-26T05:27:50.569Z,1005.36
2018-11-26T05:28:50.583Z,1005.39
2018-11-26T05:29:50.575Z,1005.33
2018-11-26T05:30:50.570Z,1005.32
2018-11-26T05:31:50.571Z,1005.37
2018-11-26T05:32:50.584Z,1005.34
2018-11-26T05:33:50.578Z,1005.36
2018-11-26T05:34:50.560Z,1005.36
2018-11-26T05:35:50.564Z,1005.39
2018-11-26T05:36:50.562Z,1005.41
2018-11-26T05:37:50.582Z,1005.38
2018-11-26T05:38:50.559Z,1005.39
2018-11-26T05:39:50.550Z,1005.40
2018-11-26T05:40:50.545Z,1005.43
2018-11-26T05:41:50.545Z,1005.41
2018-11-26T05:42:50.554Z,1005.41
2018-11-26T05:43:50.541Z,1005.39
2018-11-26T05:44:50.534Z,1005.40
2018-11-26T05:45:50.556Z,1005.39
2018-11-26T05:46:50.534Z,1005.40
2018-11-26T05:47:50.572Z,1005.40
2018-11-26T05:48:50.546Z,1005.40
2018-11-26T05:49:50.528Z,1005.38
2018-11-26T05:50:50.539Z,1005.38
2018-11-26T05:51:50.531Z,1005.41
2018-11-26T05:52:50.528Z,1005.41
2018-11-26T05:53:50.520Z,1005.39
2018-11-26T05:54:50.547Z,1005.40
2018-11-26T05:55:50.538Z,1005.42
2018-11-26T05:56:50.520Z,1005.41
2018-11-26T05:57:50.527Z,1005.42
2018-11-26T05:58:50.530Z,1005.45
2018-11-26T05:59:50.514Z,1005.46
2018-11-26T06:00:50.526Z,1005.48
2018-11-26T06:01:50.544Z,1005.52
2018-11-26T06:02:50.525Z,1005.50
2018-11-26T06:03:50.519Z,1005.52
2018-11-26T06:04:50.516Z,1005.53
2018-11-26T06:05:50.509Z,1005.53
2018-11-26T06:06:50.512Z,1005.57
2018-11-26T06:07:50.508Z,1005.54
2018-11-26T06:08:50.501Z,1005.52
2018-11-26T06:09:50.517Z,1005.55
2018-11-26T06:10:50.521Z,1005.57
2018-11-26T06:11:50.534Z,1005.56
2018-11-26T06:12:50.511Z,1005.54
2018-11-26T06:13:50.505Z,1005.57
2018-11-26T06:14:50.496Z,1005.54
2018-11-26T06:15:50.483Z,1005.57
2018-11-26T06:16:53.659Z,1005.59
2018-11-26T06:17:50.485Z,1005.61
2018-11-26T06:18:50.494Z,1005.59
2018-11-26T06:19:50.496Z,1005.60
2018-11-26T06:20:50.487Z,1005.59
2018-11-26T06:21:50.472Z,1005.63
2018-11-26T06:22:50.477Z,1005.62
2018-11-26T06:23:50.471Z,1005.65
2018-11-26T06:24:50.529Z,1005.63
2018-11-26T06:25:50.472Z,1005.63
2018-11-26T06:26:50.466Z,1005.62
2018-11-26T06:27:50.469Z,1005.65
2018-11-26T06:28:50.468Z,1005.70
2018-11-26T06:29:50.484Z,1005.70
2018-11-26T06:30:50.479Z,1005.69
2018-11-26T06:31:50.459Z,1005.69
2018-11-26T06:32:50.483Z,1005.72
2018-11-26T06:33:50.459Z,1005.68
2018-11-26T06:34:50.467Z,1005.68
2018-11-26T06:35:50.482Z,1005.65
2018-11-26T06:36:50.467Z,1005.70
2018-11-26T06:37:50.476Z,1005.68
2018-11-26T06:38:50.465Z,1005.67
2018-11-26T06:39:50.453Z,1005.68
2018-11-26T06:40:50.465Z,1005.63
2018-11-26T06:41:50.440Z,1005.68
2018-11-26T06:42:50.440Z,1005.66
2018-11-26T06:43:50.452Z,1005.68
2018-11-26T06:44:50.441Z,1005.71
2018-11-26T06:45:50.441Z,1005.76
2018-11-26T06:46:50.463Z,1005.73
2018-11-26T06:47:50.443Z,1005.74
2018-11-26T06:48:50.454Z,1005.72
2018-11-26T06:49:50.451Z,1005.68
2018-11-26T06:50:50.455Z,1005.68
2018-11-26T06:51:50.443Z,1005.71
2018-11-26T06:52:50.441Z,1005.73
2018-11-26T06:53:50.436Z,1005.74
2018-11-26T06:54:50.424Z,1005.77
2018-11-26T06:55:50.428Z,1005.80
2018-11-26T06:56:50.428Z,1005.76
2018-11-26T06:57:50.429Z,1005.82
2018-11-26T06:58:50.418Z,1005.82
2018-11-26T06:59:50.420Z,1005.83
2018-11-26T07:00:50.425Z,1005.85
2018-11-26T07:01:50.418Z,1005.78
2018-11-26T07:02:50.412Z,1005.83
2018-11-26T07:03:50.414Z,1005.78
2018-11-26T07:04:50.404Z,1005.85
2018-11-26T07:05:50.765Z,1005.83
2018-11-26T07:06:50.404Z,1005.85
2018-11-26T07:07:50.402Z,1005.88
2018-11-26T07:08:50.408Z,1005.84
2018-11-26T07:09:50.446Z,1005.85
2018-11-26T07:10:50.399Z,1005.92
2018-11-26T07:11:50.425Z,1005.97
2018-11-26T07:12:50.396Z,1005.94
2018-11-26T07:13:50.391Z,1005.94
2018-11-26T07:14:50.396Z,1005.93
2018-11-26T07:15:50.432Z,1005.99
2018-11-26T07:16:50.404Z,1005.97
2018-11-26T07:17:50.386Z,1005.98
2018-11-26T07:18:50.415Z,1005.95
2018-11-26T07:19:50.383Z,1005.96
2018-11-26T07:20:50.391Z,1005.97
2018-11-26T07:21:50.387Z,1005.95
2018-11-26T07:22:50.393Z,1006.01
2018-11-26T07:23:50.417Z,1006.00
2018-11-26T07:24:50.371Z,1006.03
2018-11-26T07:25:50.445Z,1005.99
2018-11-26T07:26:50.364Z,1006.00
2018-11-26T07:27:50.380Z,1006.00
2018-11-26T07:28:50.364Z,1005.98
2018-11-26T07:29:50.393Z,1006.00
2018-11-26T07:30:50.360Z,1006.02
2018-11-26T07:31:50.392Z,1006.06
2018-11-26T07:32:50.364Z,1006.05
2018-11-26T07:33:50.368Z,1006.04
2018-11-26T07:34:50.371Z,1006.07
2018-11-26T07:35:50.358Z,1006.05
2018-11-26T07:36:50.366Z,1006.07
2018-11-26T07:37:50.368Z,1006.08
2018-11-26T07:38:50.350Z,1006.08
2018-11-26T07:39:50.353Z,1006.09
2018-11-26T07:40:50.361Z,1006.14
2018-11-26T07:41:50.357Z,1006.17
2018-11-26T07:42:50.351Z,1006.14
2018-11-26T07:43:50.374Z,1006.13
2018-11-26T07:44:50.356Z,1006.14
2018-11-26T07:45:50.345Z,1006.17
2018-11-26T07:46:50.333Z,1006.18
2018-11-26T07:47:50.345Z,1006.18
2018-11-26T07:48:50.401Z,1006.19
2018-11-26T07:49:50.335Z,1006.19
2018-11-26T07:50:50.342Z,1006.24
2018-11-26T07:51:50.341Z,1006.19
2018-11-26T07:52:50.345Z,1006.25
2018-11-26T07:53:50.334Z,1006.25
2018-11-26T07:54:50.322Z,1006.23
2018-11-26T07:55:50.343Z,1006.22
2018-11-26T07:56:50.320Z,1006.19
2018-11-26T07:57:50.326Z,1006.24
2018-11-26T07:58:50.374Z,1006.23
2018-11-26T07:59:50.323Z,1006.24
2018-11-26T08:00:50.315Z,1006.28
2018-11-26T08:01:50.333Z,1006.28
2018-11-26T08:02:50.309Z,1006.28
2018-11-26T08:03:50.310Z,1006.27
2018-11-26T08:04:50.329Z,1006.34
2018-11-26T08:05:50.299Z,1006.29
2018-11-26T08:06:50.340Z,1006.33
2018-11-26T08:07:50.971Z,1006.36
2018-11-26T08:08:50.336Z,1006.39
2018-11-26T08:09:50.314Z,1006.37
2018-11-26T08:10:50.317Z,1006.38
2018-11-26T08:11:50.309Z,1006.40
2018-11-26T08:12:50.296Z,1006.38
2018-11-26T08:13:50.290Z,1006.40
2018-11-26T08:14:50.329Z,1006.40
2018-11-26T08:15:50.306Z,1006.45
2018-11-26T08:16:50.297Z,1006.44
2018-11-26T08:17:50.320Z,1006.46
2018-11-26T08:18:50.315Z,1006.47
2018-11-26T08:19:50.326Z,1006.44
2018-11-26T08:20:50.288Z,1006.45
2018-11-26T08:21:50.286Z,1006.48
2018-11-26T08:22:50.277Z,1006.49
2018-11-26T08:23:50.283Z,1006.51
2018-11-26T08:24:50.279Z,1006.50
2018-11-26T08:25:50.280Z,1006.48
2018-11-26T08:26:50.299Z,1006.53
2018-11-26T08:27:50.308Z,1006.59
2018-11-26T08:28:50.273Z,1006.53
2018-11-26T08:29:50.288Z,1006.58
2018-11-26T08:30:50.269Z,1006.55
2018-11-26T08:31:50.282Z,1006.64
2018-11-26T08:32:50.262Z,1006.61
2018-11-26T08:33:50.278Z,1006.60
2018-11-26T08:34:50.257Z,1006.63
2018-11-26T08:35:50.281Z,1006.64
2018-11-26T08:36:50.273Z,1006.65
2018-11-26T08:37:50.261Z,1006.69
2018-11-26T08:38:50.257Z,1006.67
2018-11-26T08:39:50.283Z,1006.74
2018-11-26T08:40:50.275Z,1006.73
2018-11-26T08:41:50.260Z,1006.71
2018-11-26T08:42:50.244Z,1006.78
2018-11-26T08:43:50.255Z,1006.75
2018-11-26T08:44:50.246Z,1006.80
2018-11-26T08:45:50.240Z,1006.81
2018-11-26T08:46:50.250Z,1006.83
2018-11-26T08:47:50.244Z,1006.86
2018-11-26T08:48:50.268Z,1006.81
2018-11-26T08:49:50.243Z,1006.82
2018-11-26T08:50:50.257Z,1006.85
2018-11-26T08:51:50.236Z,1006.87
2018-11-26T08:52:50.231Z,1006.83
2018-11-26T08:53:50.236Z,1006.88
2018-11-26T08:54:50.243Z,1006.86
2018-11-26T08:55:50.227Z,1006.90
2018-11-26T08:56:50.223Z,1006.90
2018-11-26T08:57:50.228Z,1006.90
2018-11-26T08:58:50.289Z,1006.96
2018-11-26T08:59:50.233Z,1006.93
2018-11-26T09:00:50.220Z,1006.87
2018-11-26T09:01:50.232Z,1006.93
2018-11-26T09:02:50.233Z,1006.93
2018-11-26T09:03:50.234Z,1006.97
2018-11-26T09:04:50.217Z,1006.93
2018-11-26T09:05:50.258Z,1006.95
2018-11-26T09:06:50.222Z,1007.02
2018-11-26T09:07:50.214Z,1006.97
2018-11-26T09:08:50.223Z,1006.98
2018-11-26T09:09:50.224Z,1006.98
2018-11-26T09:10:50.208Z,1006.96
2018-11-26T09:11:50.207Z,1007.05
2018-11-26T09:12:50.222Z,1007.04
2018-11-26T09:13:51.945Z,1006.95
2018-11-26T09:14:50.212Z,1006.98
2018-11-26T09:15:50.202Z,1007.00
2018-11-26T09:16:50.199Z,1007.00
2018-11-26T09:17:50.207Z,1006.99
2018-11-26T09:18:50.212Z,1007.03
2018-11-26T09:19:50.210Z,1007.02
2018-11-26T09:20:50.222Z,1007.02
2018-11-26T09:21:50.180Z,1007.10
2018-11-26T09:22:50.179Z,1007.01
2018-11-26T09:23:50.189Z,1007.09
2018-11-26T09:24:50.176Z,1007.12
2018-11-26T09:25:50.204Z,1007.07
2018-11-26T09:26:50.190Z,1007.07
2018-11-26T09:27:50.201Z,1007.12
2018-11-26T09:28:50.180Z,1007.12
2018-11-26T09:29:50.188Z,1007.12
2018-11-26T09:30:50.177Z,1007.14
2018-11-26T09:31:50.179Z,1007.15
2018-11-26T09:32:50.266Z,1007.18
2018-11-26T09:33:50.173Z,1007.18
2018-11-26T09:34:50.166Z,1007.13
2018-11-26T09:35:50.197Z,1007.18
2018-11-26T09:36:50.168Z,1007.17
2018-11-26T09:37:50.169Z,1007.18
2018-11-26T09:38:50.191Z,1007.19
2018-11-26T09:39:50.175Z,1007.19
2018-11-26T09:40:50.172Z,1007.20
2018-11-26T09:41:50.180Z,1007.23
2018-11-26T09:42:50.152Z,1007.23
2018-11-26T09:43:50.184Z,1007.21
2018-11-26T09:44:50.158Z,1007.22
2018-11-26T09:45:50.156Z,1007.26
2018-11-26T09:46:50.172Z,1007.25
2018-11-26T09:47:50.178Z,1007.24
2018-11-26T09:48:50.173Z,1007.23
2018-11-26T09:49:50.149Z,1007.27
2018-11-26T09:50:50.151Z,1007.26
2018-11-26T09:51:50.151Z,1007.24
2018-11-26T09:52:50.148Z,1007.20
2018-11-26T09:53:50.144Z,1007.25
2018-11-26T09:54:50.138Z,1007.25
2018-11-26T09:55:50.142Z,1007.28
2018-11-26T09:56:50.133Z,1007.26
2018-11-26T09:57:50.148Z,1007.29
2018-11-26T09:58:50.159Z,1007.26
2018-11-26T09:59:50.162Z,1007.25
2018-11-26T10:00:50.151Z,1007.29
2018-11-26T10:01:50.152Z,1007.26
2018-11-26T10:02:50.128Z,1007.28
2018-11-26T10:03:50.150Z,1007.31
2018-11-26T10:04:50.134Z,1007.27
2018-11-26T10:05:50.141Z,1007.33
2018-11-26T10:06:50.181Z,1007.35
2018-11-26T10:07:50.146Z,1007.33
2018-11-26T10:08:50.138Z,1007.33
2018-11-26T10:09:50.139Z,1007.36
2018-11-26T10:10:50.143Z,1007.38
2018-11-26T10:11:50.159Z,1007.33
2018-11-26T10:12:50.136Z,1007.33
2018-11-26T10:13:50.137Z,1007.33
2018-11-26T10:14:50.150Z,1007.34
2018-11-26T10:15:50.121Z,1007.31
2018-11-26T10:16:50.125Z,1007.32
2018-11-26T10:17:50.153Z,1007.33
2018-11-26T10:18:50.122Z,1007.29
2018-11-26T10:19:50.137Z,1007.37
2018-11-26T10:20:50.122Z,1007.33
2018-11-26T10:21:50.117Z,1007.29
2018-11-26T10:22:50.168Z,1007.30
2018-11-26T10:23:50.115Z,1007.32
2018-11-26T10:24:50.286Z,1007.33
2018-11-26T10:25:50.107Z,1007.24
2018-11-26T10:26:50.112Z,1007.30
2018-11-26T10:27:50.127Z,1007.27
2018-11-26T10:28:50.125Z,1007.28
2018-11-26T10:29:50.114Z,1007.36
2018-11-26T10:30:50.104Z,1007.23
2018-11-26T10:31:50.985Z,1007.28
2018-11-26T10:32:50.109Z,1007.24
2018-11-26T10:33:50.111Z,1007.25
2018-11-26T10:34:50.087Z,1007.28
2018-11-26T10:35:50.200Z,1007.25
2018-11-26T10:36:50.099Z,1007.22
2018-11-26T10:37:50.100Z,1007.18
2018-11-26T10:38:50.118Z,1007.19
2018-11-26T10:39:50.104Z,1007.15
2018-11-26T10:40:50.096Z,1007.20
2018-11-26T10:41:50.125Z,1007.28
2018-11-26T10:42:50.095Z,1007.22
2018-11-26T10:43:50.141Z,1007.22
2018-11-26T10:44:50.098Z,1007.37
2018-11-26T10:45:50.085Z,1007.23
2018-11-26T10:46:50.077Z,1007.21
2018-11-26T10:47:50.097Z,1007.17
2018-11-26T10:48:50.101Z,1007.16
2018-11-26T10:49:50.093Z,1007.17
2018-11-26T10:50:50.126Z,1007.19
2018-11-26T10:51:50.078Z,1007.18
2018-11-26T10:52:50.080Z,1007.25
2018-11-26T10:53:50.099Z,1007.26
2018-11-26T10:54:50.077Z,1007.24
2018-11-26T10:55:50.081Z,1007.19
2018-11-26T10:56:50.103Z,1007.20
2018-11-26T10:57:50.058Z,1007.20
2018-11-26T10:58:50.077Z,1007.21
2018-11-26T10:59:50.064Z,1007.21
2018-11-26T11:00:50.065Z,1007.20
2018-11-26T11:01:50.058Z,1007.21
2018-11-26T11:02:50.078Z,1007.26
2018-11-26T11:03:50.067Z,1007.21
2018-11-26T11:04:50.072Z,1007.23
2018-11-26T11:05:50.064Z,1007.21
2018-11-26T11:06:55.696Z,1007.25
2018-11-26T11:07:50.047Z,1007.23
2018-11-26T11:08:50.046Z,1007.21
2018-11-26T11:09:50.067Z,1007.20
2018-11-26T11:10:50.050Z,1007.24
2018-11-26T11:11:50.050Z,1007.23
2018-11-26T11:12:50.042Z,1007.26
2018-11-26T11:13:50.041Z,1007.24
2018-11-26T11:14:50.039Z,1007.29
2018-11-26T11:15:50.055Z,1007.29
2018-11-26T11:16:50.052Z,1007.27
2018-11-26T11:17:50.048Z,1007.29
2018-11-26T11:18:50.049Z,1007.28
2018-11-26T11:19:50.059Z,1007.28
2018-11-26T11:20:50.053Z,1007.26
2018-11-26T11:21:50.091Z,1007.31
2018-11-26T11:22:50.039Z,1007.39
2018-11-26T11:23:50.036Z,1007.27
2018-11-26T11:24:50.032Z,1007.29
2018-11-26T11:25:50.041Z,1007.31
2018-11-26T11:26:50.039Z,1007.35
2018-11-26T11:27:50.043Z,1007.34
2018-11-26T11:28:50.040Z,1007.34
2018-11-26T11:29:50.026Z,1007.36
2018-11-26T11:30:50.037Z,1007.38
2018-11-26T11:31:50.047Z,1007.35
2018-11-26T11:32:50.046Z,1007.43
2018-11-26T11:33:50.022Z,1007.41
2018-11-26T11:34:50.013Z,1007.40
2018-11-26T11:35:50.074Z,1007.39
2018-11-26T11:36:50.026Z,1007.36
2018-11-26T11:37:50.017Z,1007.35
2018-11-26T11:38:50.018Z,1007.37
2018-11-26T11:39:50.002Z,1007.35
2018-11-26T11:40:50.021Z,1007.34
2018-11-26T11:41:50.017Z,1007.35
2018-11-26T11:42:50.007Z,1007.33
2018-11-26T11:43:50.007Z,1007.34
2018-11-26T11:44:50.004Z,1007.34
2018-11-26T11:45:49.998Z,1007.29
2018-11-26T11:46:49.999Z,1007.32
2018-11-26T11:47:50.034Z,1007.32
2018-11-26T11:48:49.989Z,1007.33
2018-11-26T11:49:49.994Z,1007.28
2018-11-26T11:50:50.006Z,1007.38
2018-11-26T11:51:49.985Z,1007.29
2018-11-26T11:52:49.992Z,1007.28
2018-11-26T11:53:50.011Z,1007.30
2018-11-26T11:54:49.999Z,1007.30
2018-11-26T11:55:50.008Z,1007.25
2018-11-26T11:56:49.992Z,1007.27
2018-11-26T11:57:50.021Z,1007.27
2018-11-26T11:58:49.969Z,1007.23
2018-11-26T11:59:50.040Z,1007.27
2018-11-26T12:00:49.974Z,1007.27
2018-11-26T12:01:49.978Z,1007.23
2018-11-26T12:02:49.985Z,1007.23
2018-11-26T12:03:49.968Z,1007.23
2018-11-26T12:04:49.983Z,1007.28
2018-11-26T12:05:49.993Z,1007.25